createdAt,value
2018-03-08T00:00:47.159Z,80.76
2018-03-08T00:01:47.148Z,80.76
2018-03-08T00:02:47.171Z,80.79
2018-03-08T00:03:47.172Z,80.68
2018-03-08T00:04:47.169Z,80.37
2018-03-08T00:05:47.164Z,80.06
2018-03-08T00:06:47.203Z,80.41
2018-03-08T00:07:47.155Z,80.49
2018-03-08T00:08:47.188Z,80.09
2018-03-08T00:09:47.181Z,80.28
2018-03-08T00:10:47.179Z,79.86
2018-03-08T00:11:47.173Z,80.45
2018-03-08T00:12:47.172Z,80.04
2018-03-08T00:13:47.185Z,80.09
2018-03-08T00:14:47.176Z,80.01
2018-03-08T00:15:47.175Z,80.12
2018-03-08T00:16:47.196Z,80.15
2018-03-08T00:17:47.396Z,80.23
2018-03-08T00:18:47.187Z,79.82
2018-03-08T00:19:47.202Z,80.34
2018-03-08T00:20:47.212Z,80.31
2018-03-08T00:21:47.215Z,80.17
2018-03-08T00:22:47.235Z,80.3
2018-03-08T00:23:47.214Z,80.53
2018-03-08T00:24:47.247Z,80.31
2018-03-08T00:25:47.221Z,80.36
2018-03-08T00:26:47.224Z,80.33
2018-03-08T00:27:47.231Z,80.53
2018-03-08T00:28:47.251Z,80.67
2018-03-08T00:29:47.250Z,80.47
2018-03-08T00:30:47.243Z,80.68
2018-03-08T00:31:47.240Z,80.51
2018-03-08T00:32:47.439Z,80.49
2018-03-08T00:33:47.526Z,80.3
2018-03-08T00:34:47.261Z,80.16
2018-03-08T00:35:47.258Z,80.3
2018-03-08T00:36:47.265Z,80.29
2018-03-08T00:37:47.268Z,80.39
2018-03-08T00:38:47.291Z,80.3
2018-03-08T00:39:47.276Z,80.54
2018-03-08T00:40:47.283Z,80.62
2018-03-08T00:41:47.301Z,80.36
2018-03-08T00:42:47.277Z,80.67
2018-03-08T00:43:47.319Z,80.67
2018-03-08T00:44:47.310Z,80.56
2018-03-08T00:45:47.564Z,80.95
2018-03-08T00:46:47.277Z,80.72
2018-03-08T00:47:47.280Z,80.7
2018-03-08T00:48:47.326Z,80.97
2018-03-08T00:49:47.283Z,80.85
2018-03-08T00:50:47.320Z,80.36
2018-03-08T00:51:47.296Z,80.85
2018-03-08T00:52:47.351Z,80.95
2018-03-08T00:53:47.303Z,80.86
2018-03-08T00:54:47.315Z,81
2018-03-08T00:55:47.307Z,81.23
2018-03-08T00:56:47.337Z,81.23
2018-03-08T00:57:47.294Z,81.1
2018-03-08T00:58:47.308Z,81.01
2018-03-08T00:59:47.308Z,81.24
2018-03-08T01:00:47.307Z,81.42
2018-03-08T01:01:47.325Z,81.48
2018-03-08T01:02:47.605Z,81.48
2018-03-08T01:03:47.340Z,81.34
2018-03-08T01:04:47.321Z,81.46
2018-03-08T01:05:47.319Z,81.45
2018-03-08T01:06:47.763Z,81.24
2018-03-08T01:07:47.341Z,81.09
2018-03-08T01:08:47.343Z,81.28
2018-03-08T01:09:47.348Z,80.81
2018-03-08T01:10:47.350Z,81.18
2018-03-08T01:11:47.341Z,81.27
2018-03-08T01:12:48.594Z,81.28
2018-03-08T01:13:47.343Z,81
2018-03-08T01:14:47.391Z,81.11
2018-03-08T01:15:47.350Z,81.25
2018-03-08T01:16:47.369Z,81.33
2018-03-08T01:17:47.394Z,81.31
2018-03-08T01:18:47.368Z,81.57
2018-03-08T01:19:47.369Z,81.39
2018-03-08T01:20:47.371Z,81.5
2018-03-08T01:21:47.378Z,81.42
2018-03-08T01:22:47.407Z,81.63
2018-03-08T01:23:47.382Z,81.57
2018-03-08T01:24:47.406Z,81.55
2018-03-08T01:25:47.385Z,81.52
2018-03-08T01:26:47.385Z,81.6
2018-03-08T01:27:47.389Z,81.68
2018-03-08T01:28:47.405Z,81.58
2018-03-08T01:29:47.416Z,81.77
2018-03-08T01:30:47.418Z,81.85
2018-03-08T01:32:47.440Z,81.93
2018-03-08T01:33:47.427Z,81.37
2018-03-08T01:34:47.447Z,81.58
2018-03-08T01:35:48.456Z,81.7
2018-03-08T01:36:47.437Z,81.99
2018-03-08T01:37:47.444Z,81.79
2018-03-08T01:38:47.742Z,81.93
2018-03-08T01:39:47.660Z,81.91
2018-03-08T01:40:47.465Z,81.9
2018-03-08T01:41:47.470Z,81.97
2018-03-08T01:42:47.470Z,81.65
2018-03-08T01:43:47.679Z,81.63
2018-03-08T01:44:47.475Z,81.86
2018-03-08T01:45:47.482Z,81.7
2018-03-08T01:46:47.489Z,81.66
2018-03-08T01:47:47.508Z,81.64
2018-03-08T01:48:47.518Z,81.58
2018-03-08T01:49:47.520Z,81.64
2018-03-08T01:50:47.504Z,81.79
2018-03-08T01:51:47.518Z,81.97
2018-03-08T01:52:47.525Z,81.92
2018-03-08T01:53:47.530Z,81.98
2018-03-08T01:54:47.533Z,82.03
2018-03-08T01:55:47.539Z,82.03
2018-03-08T01:56:47.545Z,81.84
2018-03-08T01:57:47.661Z,81.82
2018-03-08T01:58:47.554Z,82.03
2018-03-08T01:59:47.554Z,81.87
2018-03-08T02:00:47.555Z,81.73
2018-03-08T02:01:47.590Z,81.71
2018-03-08T02:02:47.554Z,82.06
2018-03-08T02:03:47.707Z,82.05
2018-03-08T02:04:47.588Z,81.78
2018-03-08T02:05:48.242Z,82.1
2018-03-08T02:06:47.563Z,82.13
2018-03-08T02:07:47.589Z,82
2018-03-08T02:08:47.583Z,82.2
2018-03-08T02:09:47.670Z,81.91
2018-03-08T02:10:47.576Z,82.2
2018-03-08T02:11:47.585Z,82.2
2018-03-08T02:12:47.575Z,82.17
2018-03-08T02:13:47.580Z,81.95
2018-03-08T02:14:47.895Z,82.06
2018-03-08T02:15:47.594Z,81.96
2018-03-08T02:16:47.603Z,82.17
2018-03-08T02:17:47.593Z,82.06
2018-03-08T02:18:47.608Z,82.01
2018-03-08T02:19:47.623Z,81.93
2018-03-08T02:20:47.606Z,81.75
2018-03-08T02:21:47.618Z,81.93
2018-03-08T02:22:47.648Z,82.07
2018-03-08T02:23:47.614Z,82.07
2018-03-08T02:24:47.842Z,81.82
2018-03-08T02:25:47.619Z,82.04
2018-03-08T02:26:47.626Z,81.82
2018-03-08T02:27:47.627Z,81.93
2018-03-08T02:28:47.641Z,81.96
2018-03-08T02:29:47.664Z,82.14
2018-03-08T02:30:47.655Z,82.06
2018-03-08T02:31:47.648Z,82.08
2018-03-08T02:32:47.642Z,81.73
2018-03-08T02:33:47.658Z,81.73
2018-03-08T02:34:47.647Z,81.9
2018-03-08T02:35:47.664Z,82.07
2018-03-08T02:36:47.656Z,81.93
2018-03-08T02:37:47.659Z,81.71
2018-03-08T02:38:47.666Z,81.72
2018-03-08T02:39:47.661Z,81.79
2018-03-08T02:40:47.730Z,81.93
2018-03-08T02:41:47.692Z,82.14
2018-03-08T02:42:47.679Z,82.33
2018-03-08T02:43:47.679Z,81.98
2018-03-08T02:44:47.674Z,82.35
2018-03-08T02:45:47.683Z,82.26
2018-03-08T02:46:47.740Z,82.05
2018-03-08T02:47:47.753Z,82.06
2018-03-08T02:48:47.710Z,82.07
2018-03-08T02:49:47.698Z,81.95
2018-03-08T02:50:47.775Z,82.08
2018-03-08T02:51:47.729Z,81.88
2018-03-08T02:52:47.727Z,82.05
2018-03-08T02:53:47.844Z,82.12
2018-03-08T02:54:47.819Z,82.05
2018-03-08T02:55:47.731Z,82.15
2018-03-08T02:56:47.728Z,81.94
2018-03-08T02:57:47.934Z,81.82
2018-03-08T02:58:47.748Z,82.17
2018-03-08T02:59:47.871Z,82.19
2018-03-08T03:00:47.737Z,82.29
2018-03-08T03:01:47.753Z,82.24
2018-03-08T03:02:47.759Z,82.01
2018-03-08T03:03:47.747Z,82.11
2018-03-08T03:04:47.780Z,82.28
2018-03-08T03:05:47.761Z,82.34
2018-03-08T03:06:47.764Z,82.39
2018-03-08T03:07:47.761Z,82.32
2018-03-08T03:08:47.774Z,82.23
2018-03-08T03:09:47.947Z,82.4
2018-03-08T03:10:47.787Z,82.41
2018-03-08T03:11:47.767Z,82.71
2018-03-08T03:12:47.788Z,82.35
2018-03-08T03:13:47.781Z,82.43
2018-03-08T03:14:47.784Z,82.25
2018-03-08T03:15:48.049Z,81.95
2018-03-08T03:16:47.790Z,82.61
2018-03-08T03:17:47.789Z,82.66
2018-03-08T03:18:47.803Z,82.42
2018-03-08T03:19:47.832Z,82.43
2018-03-08T03:20:47.847Z,82.38
2018-03-08T03:21:47.808Z,82.68
2018-03-08T03:22:47.812Z,82.61
2018-03-08T03:23:47.812Z,82.91
2018-03-08T03:24:47.820Z,82.92
2018-03-08T03:25:47.843Z,82.97
2018-03-08T03:26:47.828Z,83.15
2018-03-08T03:27:47.810Z,83.15
2018-03-08T03:28:47.839Z,83.3
2018-03-08T03:29:47.824Z,83.12
2018-03-08T03:30:47.867Z,82.96
2018-03-08T03:31:47.832Z,83.09
2018-03-08T03:32:47.842Z,83.08
2018-03-08T03:33:47.849Z,82.98
2018-03-08T03:34:47.832Z,82.92
2018-03-08T03:35:47.850Z,83.14
2018-03-08T03:36:47.859Z,83.29
2018-03-08T03:37:47.865Z,83.07
2018-03-08T03:38:47.855Z,83.11
2018-03-08T03:39:47.862Z,83.21
2018-03-08T03:40:47.852Z,83.2
2018-03-08T03:41:48.140Z,83.08
2018-03-08T03:42:47.872Z,83.24
2018-03-08T03:43:47.855Z,83.68
2018-03-08T03:44:47.862Z,83.26
2018-03-08T03:45:47.871Z,83.15
2018-03-08T03:46:47.940Z,83.37
2018-03-08T03:47:47.883Z,83.61
2018-03-08T03:48:47.892Z,83.49
2018-03-08T03:49:47.896Z,83.73
2018-03-08T03:50:47.886Z,83.44
2018-03-08T03:51:47.910Z,84.22
2018-03-08T03:52:47.907Z,84.41
2018-03-08T03:53:47.902Z,83.95
2018-03-08T03:54:47.904Z,84.1
2018-03-08T03:55:47.902Z,83.72
2018-03-08T03:56:47.897Z,83.74
2018-03-08T03:57:47.926Z,84.1
2018-03-08T03:58:47.917Z,84.04
2018-03-08T03:59:47.936Z,83.76
2018-03-08T04:00:47.931Z,83.55
2018-03-08T04:01:47.930Z,83.79
2018-03-08T04:02:47.915Z,84.08
2018-03-08T04:03:47.926Z,83.71
2018-03-08T04:04:47.929Z,84.33
2018-03-08T04:05:47.928Z,84.38
2018-03-08T04:06:47.923Z,84.27
2018-03-08T04:07:47.954Z,84.15
2018-03-08T04:08:47.936Z,84.41
2018-03-08T04:09:47.978Z,84.12
2018-03-08T04:10:47.973Z,84.27
2018-03-08T04:11:47.949Z,84.4
2018-03-08T04:12:47.952Z,84.28
2018-03-08T04:13:47.946Z,84.23
2018-03-08T04:14:47.973Z,83.98
2018-03-08T04:15:47.950Z,84.06
2018-03-08T04:16:47.960Z,84.17
2018-03-08T04:17:48.000Z,84.04
2018-03-08T04:18:48.041Z,84.11
2018-03-08T04:19:47.979Z,83.83
2018-03-08T04:20:48.016Z,84.09
2018-03-08T04:21:47.979Z,84.09
2018-03-08T04:22:48.003Z,84.38
2018-03-08T04:23:48.002Z,84.4
2018-03-08T04:24:47.992Z,84.48
2018-03-08T04:25:48.023Z,84.93
2018-03-08T04:26:48.001Z,84.77
2018-03-08T04:27:48.013Z,84.73
2018-03-08T04:28:48.037Z,84.37
2018-03-08T04:29:48.064Z,84.61
2018-03-08T04:30:48.006Z,84.95
2018-03-08T04:31:48.282Z,84.72
2018-03-08T04:32:48.019Z,84.37
2018-03-08T04:33:48.027Z,84.64
2018-03-08T04:34:48.031Z,84.64
2018-03-08T04:35:48.056Z,84.95
2018-03-08T04:36:48.060Z,84.66
2018-03-08T04:37:48.037Z,84.71
2018-03-08T04:38:48.040Z,84.94
2018-03-08T04:39:48.039Z,84.92
2018-03-08T04:40:48.049Z,85.09
2018-03-08T04:41:48.060Z,84.45
2018-03-08T04:42:48.071Z,84.71
2018-03-08T04:43:48.109Z,84.85
2018-03-08T04:44:48.050Z,84.97
2018-03-08T04:45:48.061Z,84.91
2018-03-08T04:46:48.073Z,84.96
2018-03-08T04:47:48.071Z,84.94
2018-03-08T04:48:48.072Z,84.75
2018-03-08T04:49:48.071Z,84.66
2018-03-08T04:50:48.070Z,84.93
2018-03-08T04:51:48.089Z,84.96
2018-03-08T04:52:48.072Z,85
2018-03-08T04:53:48.063Z,85
2018-03-08T04:54:48.064Z,85
2018-03-08T04:55:48.070Z,85.08
2018-03-08T04:56:48.063Z,84.8
2018-03-08T04:57:48.068Z,84.76
2018-03-08T04:58:48.110Z,84.76
2018-03-08T04:59:48.078Z,84.7
2018-03-08T05:00:48.081Z,84.93
2018-03-08T05:01:48.114Z,85.06
2018-03-08T05:02:48.095Z,84.78
2018-03-08T05:03:48.141Z,85.02
2018-03-08T05:04:48.107Z,84.91
2018-03-08T05:05:48.095Z,84.78
2018-03-08T05:06:48.117Z,84.82
2018-03-08T05:07:48.119Z,84.58
2018-03-08T05:08:48.138Z,84.53
2018-03-08T05:09:48.123Z,84.31
2018-03-08T05:10:48.126Z,84.48
2018-03-08T05:11:48.130Z,84.33
2018-03-08T05:12:48.138Z,84.57
2018-03-08T05:13:48.401Z,84.61
2018-03-08T05:14:48.193Z,84.34
2018-03-08T05:15:48.153Z,84.19
2018-03-08T05:16:48.168Z,84.26
2018-03-08T05:17:48.153Z,83.85
2018-03-08T05:18:48.180Z,84.26
2018-03-08T05:19:48.181Z,84.09
2018-03-08T05:20:48.159Z,83.99
2018-03-08T05:21:48.145Z,84.36
2018-03-08T05:22:48.159Z,84.04
2018-03-08T05:23:48.347Z,84.07
2018-03-08T05:24:48.161Z,83.73
2018-03-08T05:25:48.152Z,83.96
2018-03-08T05:26:48.163Z,84.23
2018-03-08T05:27:48.158Z,84
2018-03-08T05:28:48.168Z,84
2018-03-08T05:29:48.173Z,84
2018-03-08T05:30:48.184Z,83.86
2018-03-08T05:31:48.164Z,84.16
2018-03-08T05:32:48.183Z,83.99
2018-03-08T05:33:48.196Z,84.09
2018-03-08T05:34:48.469Z,84.12
2018-03-08T05:35:48.266Z,84.01
2018-03-08T05:36:48.217Z,83.84
2018-03-08T05:37:48.224Z,83.84
2018-03-08T05:38:48.216Z,83.86
2018-03-08T05:39:48.236Z,84.1
2018-03-08T05:40:48.207Z,84.45
2018-03-08T05:41:48.210Z,84.6
2018-03-08T05:42:48.227Z,84.25
2018-03-08T05:43:48.227Z,84.76
2018-03-08T05:44:48.241Z,84.75
2018-03-08T05:45:48.231Z,84.12
2018-03-08T05:46:48.232Z,84.34
2018-03-08T05:47:48.261Z,84.88
2018-03-08T05:48:48.223Z,85.1
2018-03-08T05:49:48.243Z,85.04
2018-03-08T05:50:48.247Z,85.24
2018-03-08T05:51:48.242Z,85.13
2018-03-08T05:52:48.244Z,85.06
2018-03-08T05:53:48.234Z,85.39
2018-03-08T05:54:48.228Z,84.88
2018-03-08T05:55:48.257Z,84.91
2018-03-08T05:56:48.244Z,85
2018-03-08T05:57:48.247Z,85.37
2018-03-08T05:58:48.249Z,85.62
2018-03-08T05:59:48.249Z,85.96
2018-03-08T06:00:48.467Z,86.13
2018-03-08T06:01:48.251Z,86.56
2018-03-08T06:02:48.258Z,86.51
2018-03-08T06:03:48.272Z,86.59
2018-03-08T06:04:48.264Z,86.91
2018-03-08T06:05:48.264Z,86.6
2018-03-08T06:06:48.276Z,86.94
2018-03-08T06:07:48.261Z,86.33
2018-03-08T06:08:48.271Z,86.59
2018-03-08T06:09:48.276Z,86.61
2018-03-08T06:10:48.283Z,86.77
2018-03-08T06:11:48.271Z,87.22
2018-03-08T06:12:48.308Z,87.23
2018-03-08T06:13:48.294Z,86.81
2018-03-08T06:14:48.310Z,87.17
2018-03-08T06:15:48.323Z,87.29
2018-03-08T06:16:48.318Z,87.43
2018-03-08T06:17:48.300Z,87.22
2018-03-08T06:18:48.297Z,86.14
2018-03-08T06:19:48.308Z,86.53
2018-03-08T06:20:48.311Z,86.98
2018-03-08T06:21:48.320Z,87.04
2018-03-08T06:22:48.299Z,86.97
2018-03-08T06:23:48.319Z,86.55
2018-03-08T06:24:48.314Z,86.57
2018-03-08T06:25:48.322Z,87.04
2018-03-08T06:26:48.342Z,87.11
2018-03-08T06:27:48.321Z,87.58
2018-03-08T06:28:48.336Z,87.6
2018-03-08T06:29:48.380Z,86.96
2018-03-08T06:30:48.344Z,86.27
2018-03-08T06:31:48.422Z,86.66
2018-03-08T06:32:48.351Z,86.51
2018-03-08T06:33:48.351Z,86.87
2018-03-08T06:34:48.346Z,86.44
2018-03-08T06:35:48.427Z,86.7
2018-03-08T06:36:48.371Z,87
2018-03-08T06:37:48.375Z,86.38
2018-03-08T06:38:48.363Z,86.61
2018-03-08T06:39:48.377Z,86.99
2018-03-08T06:40:48.385Z,86.36
2018-03-08T06:41:48.373Z,86.08
2018-03-08T06:42:48.424Z,86.18
2018-03-08T06:43:48.392Z,86.44
2018-03-08T06:44:48.583Z,86.87
2018-03-08T06:45:48.381Z,87.43
2018-03-08T06:46:48.384Z,86.72
2018-03-08T06:47:48.704Z,86.83
2018-03-08T06:48:48.400Z,86.8
2018-03-08T06:49:48.409Z,86.82
2018-03-08T06:50:48.402Z,86.83
2018-03-08T06:51:48.407Z,86.59
2018-03-08T06:52:48.428Z,87.2
2018-03-08T06:53:48.426Z,87.15
2018-03-08T06:54:48.424Z,87.32
2018-03-08T06:55:48.419Z,87.26
2018-03-08T06:56:48.424Z,86.88
2018-03-08T06:57:48.437Z,86.74
2018-03-08T06:58:48.461Z,86.27
2018-03-08T06:59:48.445Z,85.75
2018-03-08T07:00:48.451Z,86.05
2018-03-08T07:01:48.441Z,85.84
2018-03-08T07:02:48.651Z,86.39
2018-03-08T07:03:48.449Z,86.45
2018-03-08T07:04:48.439Z,85.76
2018-03-08T07:05:48.455Z,86.05
2018-03-08T07:06:48.453Z,85.86
2018-03-08T07:07:48.720Z,86.17
2018-03-08T07:08:48.447Z,84.66
2018-03-08T07:09:48.588Z,85.62
2018-03-08T07:10:48.460Z,85.79
2018-03-08T07:11:48.454Z,86.13
2018-03-08T07:12:48.485Z,86.23
2018-03-08T07:13:48.521Z,86.3
2018-03-08T07:14:48.464Z,86.12
2018-03-08T07:15:48.635Z,86.2
2018-03-08T07:16:48.497Z,85.34
2018-03-08T07:17:48.550Z,85.4
2018-03-08T07:18:48.512Z,85.52
2018-03-08T07:19:48.494Z,85.88
2018-03-08T07:20:48.502Z,85.89
2018-03-08T07:21:48.488Z,85.58
2018-03-08T07:22:48.493Z,85.36
2018-03-08T07:23:48.553Z,85.98
2018-03-08T07:24:48.500Z,85.83
2018-03-08T07:25:48.506Z,86.18
2018-03-08T07:26:48.526Z,86.2
2018-03-08T07:27:48.509Z,86.19
2018-03-08T07:28:48.518Z,86.72
2018-03-08T07:29:48.529Z,86.56
2018-03-08T07:30:48.520Z,86.19
2018-03-08T07:31:48.802Z,86.42
2018-03-08T07:32:48.532Z,85.67
2018-03-08T07:33:48.552Z,85.35
2018-03-08T07:34:48.542Z,85.7
2018-03-08T07:35:48.557Z,86.13
2018-03-08T07:36:48.589Z,86.13
2018-03-08T07:37:48.555Z,86.11
2018-03-08T07:38:48.556Z,85.53
2018-03-08T07:39:48.576Z,85.91
2018-03-08T07:40:48.578Z,85.45
2018-03-08T07:41:48.593Z,85.16
2018-03-08T07:42:48.580Z,85.03
2018-03-08T07:43:48.579Z,85.37
2018-03-08T07:44:48.584Z,85.34
2018-03-08T07:45:48.587Z,85.03
2018-03-08T07:46:48.594Z,85.24
2018-03-08T07:47:48.591Z,84.42
2018-03-08T07:48:48.607Z,84.37
2018-03-08T07:49:48.600Z,84.25
2018-03-08T07:50:48.593Z,84.7
2018-03-08T07:51:48.765Z,84.89
2018-03-08T07:52:48.638Z,85.26
2018-03-08T07:53:48.623Z,85.29
2018-03-08T07:54:48.623Z,85.51
2018-03-08T07:55:48.625Z,85.31
2018-03-08T07:56:48.628Z,85.52
2018-03-08T07:57:48.652Z,84.78
2018-03-08T07:58:48.642Z,84.93
2018-03-08T07:59:48.650Z,84.68
2018-03-08T08:00:48.657Z,84.79
2018-03-08T08:01:48.656Z,84.82
2018-03-08T08:02:48.684Z,85.01
2018-03-08T08:03:48.654Z,84.99
2018-03-08T08:04:48.686Z,84.62
2018-03-08T08:05:48.657Z,84.05
2018-03-08T08:06:48.665Z,84.35
2018-03-08T08:07:48.670Z,84.36
2018-03-08T08:08:48.699Z,84.24
2018-03-08T08:09:48.690Z,84.37
2018-03-08T08:10:48.695Z,84.15
2018-03-08T08:11:48.719Z,83.97
2018-03-08T08:12:48.693Z,83.93
2018-03-08T08:13:48.684Z,84.15
2018-03-08T08:14:48.687Z,84.44
2018-03-08T08:15:48.689Z,84.26
2018-03-08T08:16:48.690Z,84.23
2018-03-08T08:17:48.707Z,84.12
2018-03-08T08:18:48.717Z,84.47
2018-03-08T08:19:48.696Z,84.32
2018-03-08T08:20:48.709Z,84.61
2018-03-08T08:21:48.711Z,84.81
2018-03-08T08:22:48.718Z,84.3
2018-03-08T08:23:49.005Z,84.22
2018-03-08T08:24:48.739Z,84.2
2018-03-08T08:25:48.809Z,85.02
2018-03-08T08:26:48.870Z,84.64
2018-03-08T08:27:48.739Z,84.44
2018-03-08T08:28:48.764Z,84.05
2018-03-08T08:29:48.751Z,83.72
2018-03-08T08:30:48.758Z,83.6
2018-03-08T08:31:48.785Z,84.03
2018-03-08T08:32:48.783Z,84
2018-03-08T08:33:49.035Z,84.24
2018-03-08T08:34:54.751Z,84.46
2018-03-08T08:35:48.743Z,84.14
2018-03-08T08:36:48.764Z,83.26
2018-03-08T08:37:48.763Z,83.12
2018-03-08T08:38:48.795Z,83.15
2018-03-08T08:39:48.766Z,83.37
2018-03-08T08:40:48.809Z,83.05
2018-03-08T08:41:48.776Z,83.23
2018-03-08T08:42:48.793Z,83.36
2018-03-08T08:43:48.795Z,83.67
2018-03-08T08:44:48.794Z,83.82
2018-03-08T08:45:48.772Z,83.71
2018-03-08T08:46:48.789Z,84.1
2018-03-08T08:47:48.789Z,83.9
2018-03-08T08:48:49.083Z,83.81
2018-03-08T08:49:48.812Z,83.32
2018-03-08T08:50:48.812Z,82.93
2018-03-08T08:51:48.819Z,82.55
2018-03-08T08:52:48.875Z,82.26
2018-03-08T08:53:48.828Z,82.6
2018-03-08T08:54:48.819Z,81.97
2018-03-08T08:55:48.821Z,81.97
2018-03-08T08:56:48.845Z,81.65
2018-03-08T08:57:48.837Z,82.08
2018-03-08T08:58:48.840Z,81.63
2018-03-08T08:59:48.824Z,81.51
2018-03-08T09:00:48.871Z,82
2018-03-08T09:01:48.848Z,82.59
2018-03-08T09:02:48.844Z,82.37
2018-03-08T09:03:48.844Z,82.34
2018-03-08T09:04:48.888Z,82.27
2018-03-08T09:05:48.868Z,82.33
2018-03-08T09:06:48.855Z,82.3
2018-03-08T09:07:48.860Z,82.6
2018-03-08T09:08:48.857Z,82.16
2018-03-08T09:09:48.875Z,81.63
2018-03-08T09:10:48.924Z,81.5
2018-03-08T09:11:48.861Z,81.62
2018-03-08T09:12:48.877Z,80.93
2018-03-08T09:13:48.908Z,80.61
2018-03-08T09:14:48.868Z,81.32
2018-03-08T09:15:48.918Z,80.77
2018-03-08T09:16:48.880Z,80.29
2018-03-08T09:17:48.896Z,80.69
2018-03-08T09:18:48.909Z,80.7
2018-03-08T09:19:48.914Z,80.45
2018-03-08T09:20:48.911Z,80.3
2018-03-08T09:21:48.923Z,80.2
2018-03-08T09:22:48.920Z,79.66
2018-03-08T09:23:48.923Z,79.63
2018-03-08T09:24:48.924Z,79.59
2018-03-08T09:25:48.907Z,79.82
2018-03-08T09:26:48.919Z,79.47
2018-03-08T09:27:48.948Z,79.7
2018-03-08T09:28:48.924Z,79.52
2018-03-08T09:29:48.908Z,79.79
2018-03-08T09:30:48.910Z,79.21
2018-03-08T09:31:48.928Z,78.79
2018-03-08T09:32:49.215Z,78.93
2018-03-08T09:33:48.921Z,79.02
2018-03-08T09:34:48.927Z,79.43
2018-03-08T09:35:48.911Z,78.77
2018-03-08T09:36:48.921Z,78.71
2018-03-08T09:37:48.950Z,78.38
2018-03-08T09:38:48.919Z,77.72
2018-03-08T09:39:48.938Z,76.99
2018-03-08T09:40:48.927Z,77.47
2018-03-08T09:41:48.968Z,77.3
2018-03-08T09:42:48.956Z,77.21
2018-03-08T09:43:49.084Z,77.02
2018-03-08T09:44:48.951Z,76.43
2018-03-08T09:45:48.956Z,76.27
2018-03-08T09:46:48.974Z,76.03
2018-03-08T09:47:48.958Z,76.19
2018-03-08T09:48:48.980Z,75.9
2018-03-08T09:49:48.962Z,76.39
2018-03-08T09:50:48.967Z,75.67
2018-03-08T09:51:49.065Z,74.82
2018-03-08T09:52:48.967Z,75.38
2018-03-08T09:53:49.000Z,75.22
2018-03-08T09:54:48.967Z,74.9
2018-03-08T09:55:48.978Z,75.06
2018-03-08T09:56:48.984Z,75.02
2018-03-08T09:57:48.989Z,75.09
2018-03-08T09:58:49.005Z,75.29
2018-03-08T09:59:49.010Z,74.36
2018-03-08T10:00:48.995Z,73.7
2018-03-08T10:01:49.008Z,73.01
2018-03-08T10:02:49.002Z,73.37
2018-03-08T10:03:49.029Z,72.38
2018-03-08T10:04:49.010Z,73.31
2018-03-08T10:05:49.023Z,73.1
2018-03-08T10:06:49.023Z,72.02
2018-03-08T10:07:49.071Z,71.42
2018-03-08T10:08:49.065Z,71.37
2018-03-08T10:09:49.025Z,71.49
2018-03-08T10:10:49.048Z,72.13
2018-03-08T10:11:49.036Z,71.72
2018-03-08T10:12:49.100Z,71.69
2018-03-08T10:13:49.059Z,72.04
2018-03-08T10:14:49.056Z,71.64
2018-03-08T10:15:49.052Z,71.65
2018-03-08T10:16:49.054Z,70.51
2018-03-08T10:17:49.075Z,70.58
2018-03-08T10:18:49.053Z,70.33
2018-03-08T10:19:49.066Z,70.13
2018-03-08T10:20:49.083Z,69.83
2018-03-08T10:21:49.071Z,69.44
2018-03-08T10:22:49.211Z,69.95
2018-03-08T10:23:49.072Z,70.47
2018-03-08T10:24:49.081Z,70.26
2018-03-08T10:25:49.069Z,70.62
2018-03-08T10:26:49.082Z,71.06
2018-03-08T10:27:49.074Z,70.26
2018-03-08T10:28:49.085Z,70.58
2018-03-08T10:29:49.089Z,69.28
2018-03-08T10:30:49.087Z,68.22
2018-03-08T10:31:49.090Z,67.93
2018-03-08T10:32:49.103Z,66.88
2018-03-08T10:33:49.138Z,67.85
2018-03-08T10:34:49.138Z,67.99
2018-03-08T10:35:49.121Z,66.24
2018-03-08T10:36:49.124Z,66.3
2018-03-08T10:37:49.113Z,66.31
2018-03-08T10:38:49.133Z,66.63
2018-03-08T10:39:49.127Z,66.64
2018-03-08T10:40:49.105Z,66.15
2018-03-08T10:41:49.120Z,65.59
2018-03-08T10:42:49.121Z,65.71
2018-03-08T10:43:49.143Z,65.24
2018-03-08T10:44:49.127Z,65.46
2018-03-08T10:45:49.129Z,64.92
2018-03-08T10:46:49.135Z,65.72
2018-03-08T10:47:49.135Z,65.93
2018-03-08T10:49:49.153Z,65.8
2018-03-08T10:50:49.144Z,66.1
2018-03-08T10:51:49.172Z,66.21
2018-03-08T10:52:49.156Z,66.19
2018-03-08T10:53:49.176Z,66.26
2018-03-08T10:54:49.177Z,65.73
2018-03-08T10:55:49.192Z,64.04
2018-03-08T10:56:49.172Z,64.81
2018-03-08T10:57:49.183Z,64.72
2018-03-08T10:58:49.175Z,64.99
2018-03-08T10:59:49.166Z,64.43
2018-03-08T11:00:49.872Z,64.21
2018-03-08T11:01:49.162Z,64.1
2018-03-08T11:02:49.176Z,64.83
2018-03-08T11:03:49.187Z,63.75
2018-03-08T11:04:49.230Z,64.21
2018-03-08T11:05:49.181Z,64.18
2018-03-08T11:06:49.280Z,64.28
2018-03-08T11:07:49.198Z,63.62
2018-03-08T11:08:49.223Z,63.76
2018-03-08T11:09:49.222Z,64.26
2018-03-08T11:10:49.208Z,64.81
2018-03-08T11:11:49.213Z,64.27
2018-03-08T11:12:49.229Z,63.85
2018-03-08T11:13:49.209Z,63.94
2018-03-08T11:14:49.260Z,64.26
2018-03-08T11:15:49.263Z,63.9
2018-03-08T11:16:49.250Z,64.23
2018-03-08T11:17:49.222Z,63.98
2018-03-08T11:18:49.233Z,63.1
2018-03-08T11:19:49.260Z,63.59
2018-03-08T11:20:49.238Z,63.42
2018-03-08T11:21:49.243Z,64.06
2018-03-08T11:22:49.242Z,63.78
2018-03-08T11:23:49.273Z,63.43
2018-03-08T11:24:49.252Z,63.65
2018-03-08T11:25:49.254Z,62.55
2018-03-08T11:26:49.267Z,62.51
2018-03-08T11:27:49.259Z,62.88
2018-03-08T11:28:49.265Z,62.71
2018-03-08T11:29:49.257Z,62.76
2018-03-08T11:30:49.293Z,63.74
2018-03-08T11:31:49.246Z,63.16
2018-03-08T11:32:49.263Z,63.61
2018-03-08T11:33:49.289Z,63.2
2018-03-08T11:34:49.277Z,63.88
2018-03-08T11:36:49.275Z,63.27
2018-03-08T11:37:49.320Z,63.37
2018-03-08T11:38:49.278Z,63.34
2018-03-08T11:39:49.298Z,63.22
2018-03-08T11:40:49.295Z,63.45
2018-03-08T11:41:49.299Z,63.25
2018-03-08T11:42:49.320Z,63.45
2018-03-08T11:43:49.309Z,63.67
2018-03-08T11:44:49.613Z,63.48
2018-03-08T11:45:49.304Z,63.01
2018-03-08T11:46:49.309Z,64.06
2018-03-08T11:47:49.304Z,63.89
2018-03-08T11:48:49.313Z,63.61
2018-03-08T11:49:49.362Z,63.72
2018-03-08T11:50:49.320Z,63.37
2018-03-08T11:51:49.333Z,63.73
2018-03-08T11:52:49.337Z,63.91
2018-03-08T11:53:49.334Z,63.87
2018-03-08T11:54:49.681Z,63.04
2018-03-08T11:55:49.334Z,63.26
2018-03-08T11:56:49.344Z,63.32
2018-03-08T11:57:49.370Z,62.93
2018-03-08T11:58:49.354Z,61.34
2018-03-08T11:59:49.360Z,61.25
2018-03-08T12:00:49.386Z,61.21
2018-03-08T12:01:49.374Z,60.77
2018-03-08T12:02:49.390Z,60.82
2018-03-08T12:03:49.378Z,60.69
2018-03-08T12:04:49.380Z,59.74
2018-03-08T12:05:49.385Z,57.8
2018-03-08T12:06:49.393Z,57.72
2018-03-08T12:07:49.385Z,58.48
2018-03-08T12:08:49.377Z,57.69
2018-03-08T12:09:49.374Z,58.67
2018-03-08T12:10:49.399Z,58.05
2018-03-08T12:11:49.389Z,57.84
2018-03-08T12:12:49.400Z,56.83
2018-03-08T12:13:49.402Z,58.6
2018-03-08T12:14:49.397Z,58.31
2018-03-08T12:15:49.456Z,58.3
2018-03-08T12:16:49.826Z,56.2
2018-03-08T12:17:49.646Z,56.63
2018-03-08T12:18:49.413Z,56.78
2018-03-08T12:19:49.569Z,58.32
2018-03-08T12:20:49.423Z,58.09
2018-03-08T12:21:49.429Z,57.35
2018-03-08T12:22:49.601Z,56.84
2018-03-08T12:23:49.422Z,56.7
2018-03-08T12:24:49.449Z,58.08
2018-03-08T12:25:49.429Z,57.42
2018-03-08T12:26:49.432Z,57.03
2018-03-08T12:27:49.477Z,57.27
2018-03-08T12:28:49.445Z,55.69
2018-03-08T12:29:49.822Z,56.98
2018-03-08T12:30:49.438Z,57.26
2018-03-08T12:31:49.464Z,56.42
2018-03-08T12:32:49.457Z,55.88
2018-03-08T12:33:49.463Z,55.43
2018-03-08T12:34:49.481Z,56.08
2018-03-08T12:35:49.728Z,55.63
2018-03-08T12:36:49.458Z,54.56
2018-03-08T12:37:49.464Z,56.06
2018-03-08T12:38:49.469Z,54.01
2018-03-08T12:39:49.474Z,54.62
2018-03-08T12:40:49.511Z,55.07
2018-03-08T12:41:49.504Z,54.87
2018-03-08T12:42:49.471Z,54.77
2018-03-08T12:43:49.483Z,55.75
2018-03-08T12:44:49.489Z,54.44
2018-03-08T12:45:49.547Z,54.65
2018-03-08T12:46:49.499Z,52.64
2018-03-08T12:47:49.488Z,54.73
2018-03-08T12:48:49.889Z,54.34
2018-03-08T12:49:49.501Z,53.57
2018-03-08T12:50:49.528Z,53.36
2018-03-08T12:51:49.514Z,53.5
2018-03-08T12:52:49.520Z,52.53
2018-03-08T12:53:49.528Z,53.39
2018-03-08T12:54:49.519Z,54.32
2018-03-08T12:55:49.840Z,54.44
2018-03-08T12:56:49.546Z,53.76
2018-03-08T12:57:49.545Z,53.11
2018-03-08T12:58:49.540Z,52.58
2018-03-08T12:59:49.554Z,53.59